createdAt,value
2019-02-20T00:00:06.032Z,98.79
2019-02-20T00:01:05.839Z,98.97
2019-02-20T00:02:05.421Z,98.88
2019-02-20T00:03:04.998Z,98.88
2019-02-20T00:04:05.010Z,99.26
2019-02-20T00:13:45.125Z,98.41
2019-02-20T00:14:46.656Z,98.41
2019-02-20T00:15:46.937Z,98.31
2019-02-20T00:16:46.367Z,98.64
2019-02-20T00:17:44.895Z,98.6
2019-02-20T00:18:43.723Z,98.6
2019-02-20T00:19:44.866Z,98.6
2019-02-20T00:20:42.891Z,98.6
2019-02-20T00:21:43.859Z,98.17
2019-02-20T00:22:43.451Z,99.02
2019-02-20T00:23:43.111Z,98.64
2019-02-20T00:24:42.953Z,98.64
2019-02-20T00:26:54.032Z,99.02
2019-02-20T00:27:56.223Z,98.74
2019-02-20T00:28:55.982Z,99.21
2019-02-20T00:29:56.957Z,98.93
2019-02-20T00:30:59.179Z,98.83
2019-02-20T00:32:04.621Z,98.83
2019-02-20T00:33:04.536Z,99.21
2019-02-20T00:34:03.046Z,98.83
2019-02-20T00:35:02.789Z,98.74
2019-02-20T00:36:02.066Z,99.21
2019-02-20T00:37:02.563Z,99.02
2019-02-20T00:38:02.448Z,98.45
2019-02-20T00:39:03.027Z,99.21
2019-02-20T00:40:03.629Z,99.02
2019-02-20T00:41:06.374Z,99.78
2019-02-20T00:43:10.320Z,98.93
2019-02-20T00:44:14.074Z,98.83
2019-02-20T00:45:18.334Z,98.74
2019-02-20T00:46:21.458Z,99.02
2019-02-20T00:47:20.962Z,99.78
2019-02-20T00:48:21.494Z,99.97
2019-02-20T00:49:25.145Z,99.21
2019-02-20T00:50:22.248Z,99.69
2019-02-20T00:51:27.719Z,99.02
2019-02-20T00:52:31.729Z,99.02
2019-02-20T00:53:31.777Z,99.02
2019-02-20T00:54:32.395Z,98.93
2019-02-20T00:55:33.112Z,99.69
2019-02-20T00:56:34.643Z,98.74
2019-02-20T00:57:36.574Z,98.93
2019-02-20T00:58:39.665Z,99.02
2019-02-20T00:59:37.801Z,99.02
2019-02-20T01:00:36.331Z,99.4
2019-02-20T01:01:34.858Z,98.83
2019-02-20T01:02:33.424Z,98.83
2019-02-20T01:03:31.953Z,99.21
2019-02-20T01:04:30.527Z,98.83
2019-02-20T01:05:29.054Z,99.02
2019-02-20T01:06:27.576Z,99.59
2019-02-20T01:07:26.126Z,99.69
2019-02-20T01:08:24.673Z,99.02
2019-02-20T01:09:23.422Z,99.69
2019-02-20T01:10:21.963Z,98.74
2019-02-20T01:11:20.532Z,99.11
2019-02-20T01:12:19.075Z,99.02
2019-02-20T01:13:17.864Z,98.83
2019-02-20T01:14:16.417Z,98.83
2019-02-20T01:15:15.007Z,99.02
2019-02-20T01:16:13.538Z,99.02
2019-02-20T01:17:12.163Z,98.93
2019-02-20T01:18:10.675Z,99.21
2019-02-20T01:19:09.341Z,98.64
2019-02-20T01:20:07.937Z,99.02
2019-02-20T01:21:06.691Z,98.45
2019-02-20T01:22:05.310Z,99.11
2019-02-20T01:23:03.951Z,98.74
2019-02-20T01:24:02.465Z,98.55
2019-02-20T01:25:01.003Z,99.21
2019-02-20T01:25:59.665Z,99.02
2019-02-20T01:26:58.317Z,99.59
2019-02-20T01:27:56.838Z,99.69
2019-02-20T01:28:55.432Z,99.69
2019-02-20T01:29:54.052Z,99.99
2019-02-20T01:30:52.603Z,99.99
2019-02-20T01:31:51.270Z,99.88
2019-02-20T01:32:49.970Z,99.99
2019-02-20T01:33:48.531Z,99.21
2019-02-20T01:34:47.208Z,99.92
2019-02-20T01:35:45.795Z,99.26
2019-02-20T01:36:44.310Z,99.99
2019-02-20T01:37:42.997Z,99.64
2019-02-20T01:38:41.505Z,99.83
2019-02-20T01:39:40.248Z,99.99
2019-02-20T01:40:38.919Z,99.99
2019-02-20T01:41:37.550Z,99.54
2019-02-20T01:42:36.170Z,99.99
2019-02-20T01:43:34.696Z,99.99
2019-02-20T01:44:33.340Z,99.99
2019-02-20T01:45:32.039Z,99.99
2019-02-20T01:46:30.567Z,99.99
2019-02-20T01:47:29.110Z,99.99
2019-02-20T01:48:27.697Z,99.99
2019-02-20T01:49:26.243Z,99.99
2019-02-20T01:50:24.758Z,99.99
2019-02-20T01:51:23.324Z,99.99
2019-02-20T01:52:21.838Z,99.99
2019-02-20T01:53:20.431Z,99.99
2019-02-20T01:54:18.929Z,99.99
2019-02-20T01:55:17.622Z,99.99
2019-02-20T01:56:16.205Z,99.99
2019-02-20T01:57:14.773Z,99.99
2019-02-20T01:58:13.553Z,99.99
2019-02-20T01:59:12.211Z,99.99
2019-02-20T02:00:10.730Z,99.99
2019-02-20T02:01:09.331Z,99.99
2019-02-20T02:02:07.947Z,99.99
2019-02-20T02:03:06.516Z,99.99
2019-02-20T02:04:05.253Z,99.99
2019-02-20T02:05:03.812Z,99.99
2019-02-20T02:06:02.386Z,99.99
2019-02-20T02:07:00.913Z,99.99
2019-02-20T02:07:59.476Z,99.99
2019-02-20T02:08:59.619Z,99.99
2019-02-20T02:09:56.674Z,99.99
2019-02-20T02:10:55.284Z,99.99
2019-02-20T02:11:53.950Z,99.99
2019-02-20T02:12:52.507Z,99.99
2019-02-20T02:13:51.044Z,99.99
2019-02-20T02:14:49.593Z,99.99
2019-02-20T02:15:48.132Z,99.99
2019-02-20T02:16:46.675Z,99.99
2019-02-20T02:17:45.214Z,99.99
2019-02-20T02:18:43.868Z,99.99
2019-02-20T02:19:42.420Z,99.99
2019-02-20T02:20:40.940Z,99.99
2019-02-20T02:21:39.669Z,99.99
2019-02-20T02:22:38.293Z,99.99
2019-02-20T02:23:36.858Z,99.99
2019-02-20T02:24:35.516Z,99.99
2019-02-20T02:25:34.094Z,99.99
2019-02-20T02:26:32.642Z,99.99
2019-02-20T02:27:31.154Z,99.99
2019-02-20T02:28:29.797Z,99.99
2019-02-20T02:29:28.364Z,99.99
2019-02-20T02:30:26.872Z,99.99
2019-02-20T02:31:25.418Z,99.99
2019-02-20T02:32:23.968Z,99.99
2019-02-20T02:33:22.496Z,99.99
2019-02-20T02:34:21.023Z,99.99
2019-02-20T02:35:19.562Z,99.99
2019-02-20T02:36:18.193Z,99.99
2019-02-20T02:37:16.736Z,99.99
2019-02-20T02:38:15.488Z,99.99
2019-02-20T02:39:14.103Z,99.99
2019-02-20T02:40:12.661Z,99.99
2019-02-20T02:41:11.214Z,99.99
2019-02-20T02:42:09.786Z,99.99
2019-02-20T02:43:08.390Z,99.99
2019-02-20T02:44:06.929Z,99.99
2019-02-20T02:45:05.637Z,99.99
2019-02-20T02:46:04.179Z,99.99
2019-02-20T02:47:02.775Z,99.99
2019-02-20T02:48:01.520Z,99.99
2019-02-20T02:49:00.086Z,99.99
2019-02-20T02:49:58.602Z,99.99
2019-02-20T02:50:57.205Z,99.99
2019-02-20T02:51:55.907Z,99.99
2019-02-20T02:52:54.522Z,99.99
2019-02-20T02:53:53.092Z,99.99
2019-02-20T02:54:51.664Z,99.99
2019-02-20T02:55:50.236Z,99.99
2019-02-20T02:56:48.802Z,99.99
2019-02-20T02:57:47.381Z,99.99
2019-02-20T02:58:45.957Z,99.99
2019-02-20T02:59:44.494Z,99.99
2019-02-20T03:00:43.228Z,99.99
2019-02-20T03:01:41.887Z,99.99
2019-02-20T03:02:40.444Z,99.99
2019-02-20T03:04:41.041Z,99.99
2019-02-20T03:05:39.818Z,99.99
2019-02-20T03:06:38.381Z,99.68
2019-02-20T03:07:37.228Z,99.4
2019-02-20T03:08:35.858Z,98.92
2019-02-20T03:09:34.429Z,99.4
2019-02-20T03:10:33.024Z,99.82
2019-02-20T03:11:31.834Z,99.99
2019-02-20T03:12:30.372Z,99.99
2019-02-20T03:13:28.978Z,99.99
2019-02-20T03:14:27.696Z,99.99
2019-02-20T03:15:26.295Z,99.99
2019-02-20T03:16:24.869Z,99.99
2019-02-20T03:17:23.464Z,99.99
2019-02-20T03:18:22.142Z,99.99
2019-02-20T03:19:20.698Z,99.99
2019-02-20T03:20:19.199Z,99.99
2019-02-20T03:21:17.862Z,99.99
2019-02-20T03:22:16.387Z,99.99
2019-02-20T03:23:15.061Z,99.99
2019-02-20T03:24:13.893Z,99.99
2019-02-20T03:25:12.452Z,99.99
2019-02-20T03:26:11.017Z,99.99
2019-02-20T03:27:09.699Z,99.99
2019-02-20T03:28:08.280Z,99.99
2019-02-20T03:29:06.856Z,99.63
2019-02-20T03:30:05.423Z,99.82
2019-02-20T03:31:04.138Z,99.35
2019-02-20T03:32:02.659Z,99.4
2019-02-20T03:33:01.293Z,99.97
2019-02-20T03:33:59.896Z,99.49
2019-02-20T03:34:58.500Z,99.73
2019-02-20T03:35:57.163Z,99.49
2019-02-20T03:36:55.860Z,99.4
2019-02-20T03:37:54.407Z,99.77
2019-02-20T03:38:52.963Z,99.49
2019-02-20T03:39:51.859Z,99.77
2019-02-20T03:40:50.422Z,99.21
2019-02-20T03:41:49.127Z,98.83
2019-02-20T03:42:47.554Z,98.64
2019-02-20T03:43:46.077Z,99.77
2019-02-20T03:44:44.621Z,98.73
2019-02-20T03:45:43.320Z,99.11
2019-02-20T03:46:42.119Z,98.26
2019-02-20T03:47:40.668Z,97.88
2019-02-20T03:48:39.376Z,98.35
2019-02-20T03:49:37.968Z,98.87
2019-02-20T03:50:36.486Z,99.54
2019-02-20T03:51:35.031Z,99.99
2019-02-20T03:52:33.830Z,99.99
2019-02-20T03:53:34.997Z,99.99
2019-02-20T03:54:33.905Z,99.99
2019-02-20T03:55:32.699Z,99.99
2019-02-20T03:56:31.235Z,99.99
2019-02-20T03:57:29.937Z,99.99
2019-02-20T03:58:28.490Z,99.99
2019-02-20T03:59:27.160Z,99.99
2019-02-20T04:00:25.921Z,99.99
2019-02-20T04:01:24.569Z,99.99
2019-02-20T04:02:24.688Z,99.99
2019-02-20T04:03:23.255Z,99.99
2019-02-20T04:04:21.951Z,99.99
2019-02-20T04:05:20.507Z,99.99
2019-02-20T04:06:19.165Z,99.99
2019-02-20T04:07:17.752Z,99.99
2019-02-20T04:09:40.385Z,99.97
2019-02-20T04:10:38.926Z,99.58
2019-02-20T04:11:37.706Z,99.99
2019-02-20T04:12:36.220Z,99.68
2019-02-20T04:13:34.746Z,99.3
2019-02-20T04:14:33.443Z,99.49
2019-02-20T04:15:32.190Z,99.99
2019-02-20T04:16:30.717Z,99.99
2019-02-20T04:17:29.257Z,99.58
2019-02-20T04:18:27.800Z,99.58
2019-02-20T04:19:26.348Z,98.83
2019-02-20T04:20:25.240Z,98.54
2019-02-20T04:21:23.977Z,99.11
2019-02-20T04:22:22.535Z,99.4
2019-02-20T04:23:21.122Z,99.49
2019-02-20T04:24:20.110Z,99.77
2019-02-20T04:25:18.686Z,98.54
2019-02-20T04:26:17.348Z,99.02
2019-02-20T04:27:16.017Z,99.4
2019-02-20T04:28:14.645Z,99.99
2019-02-20T04:29:13.264Z,99.99
2019-02-20T04:30:11.996Z,99.99
2019-02-20T04:31:10.602Z,99.99
2019-02-20T04:32:09.187Z,99.99
2019-02-20T04:33:07.835Z,99.99
2019-02-20T04:34:06.448Z,99.99
2019-02-20T04:35:04.954Z,99.58
2019-02-20T04:36:03.800Z,99.49
2019-02-20T04:37:02.400Z,99.11
2019-02-20T04:38:00.928Z,98.26
2019-02-20T04:38:59.559Z,97.97
2019-02-20T04:39:58.128Z,98.35
2019-02-20T04:40:56.693Z,98.45
2019-02-20T04:41:55.335Z,98.64
2019-02-20T04:42:54.366Z,97.78
2019-02-20T04:43:52.911Z,98.45
2019-02-20T04:44:51.503Z,97.78
2019-02-20T04:45:50.200Z,97.97
2019-02-20T04:46:48.726Z,97.41
2019-02-20T04:47:47.294Z,96.93
2019-02-20T04:48:45.861Z,97.31
2019-02-20T04:49:44.401Z,97.41
2019-02-20T04:50:43.161Z,97.02
2019-02-20T04:51:41.787Z,97.6
2019-02-20T04:52:40.457Z,98.02
2019-02-20T04:53:39.027Z,98.3
2019-02-20T04:54:37.694Z,99.02
2019-02-20T04:55:36.434Z,98.11
2019-02-20T04:56:35.073Z,98.26
2019-02-20T04:57:33.804Z,99.11
2019-02-20T04:58:32.365Z,98.35
2019-02-20T04:59:30.893Z,98.07
2019-02-20T05:00:29.546Z,97.69
2019-02-20T05:01:28.127Z,97.41
2019-02-20T05:02:26.970Z,97.31
2019-02-20T05:03:25.518Z,98.26
2019-02-20T05:04:24.053Z,98.16
2019-02-20T05:05:22.614Z,97.97
2019-02-20T05:06:21.479Z,97.41
2019-02-20T05:07:20.258Z,97.6
2019-02-20T05:08:18.833Z,97.41
2019-02-20T05:09:17.600Z,97.78
2019-02-20T05:10:16.108Z,97.88
2019-02-20T05:11:14.682Z,97.17
2019-02-20T05:12:13.225Z,97.69
2019-02-20T05:13:11.739Z,97.69
2019-02-20T05:14:10.302Z,97.12
2019-02-20T05:15:08.824Z,97.07
2019-02-20T05:16:07.582Z,96.97
2019-02-20T05:17:06.118Z,97.55
2019-02-20T05:18:04.639Z,97.36
2019-02-20T05:19:03.352Z,97.17
2019-02-20T05:20:02.065Z,98.21
2019-02-20T05:21:00.614Z,97.74
2019-02-20T05:21:59.129Z,97.92
2019-02-20T05:22:57.796Z,98.3
2019-02-20T05:23:56.390Z,98.21
2019-02-20T05:24:55.011Z,99.06
2019-02-20T05:25:53.861Z,98.97
2019-02-20T05:26:52.483Z,98.68
2019-02-20T05:27:51.029Z,98.68
2019-02-20T05:28:50.533Z,98.68
2019-02-20T05:29:48.403Z,98.87
2019-02-20T05:30:47.002Z,99.06
2019-02-20T05:31:46.092Z,98.97
2019-02-20T05:32:44.735Z,98.68
2019-02-20T05:35:25.045Z,99.73
2019-02-20T05:36:23.681Z,99.99
2019-02-20T05:37:22.335Z,99.99
2019-02-20T05:38:20.881Z,99.63
2019-02-20T05:39:19.804Z,99.54
2019-02-20T05:40:18.386Z,99.35
2019-02-20T05:41:18.079Z,99.35
2019-02-20T05:42:16.638Z,98.4
2019-02-20T05:43:15.404Z,98.87
2019-02-20T05:44:13.997Z,98.49
2019-02-20T05:45:12.641Z,97.74
2019-02-20T05:46:11.302Z,97.36
2019-02-20T06:03:53.524Z,98.59
2019-02-20T06:04:52.093Z,98.11
2019-02-20T06:05:50.715Z,98.02
2019-02-20T06:06:50.210Z,98.59
2019-02-20T06:07:49.294Z,98.4
2019-02-20T06:08:48.068Z,98.21
2019-02-20T06:09:46.678Z,99.26
2019-02-20T06:10:45.605Z,98.49
2019-02-20T06:11:44.218Z,98.78
2019-02-20T06:12:42.762Z,98.02
2019-02-20T06:13:41.306Z,98.11
2019-02-20T06:14:40.107Z,98.97
2019-02-20T06:15:38.701Z,99.16
2019-02-20T06:16:37.253Z,98.68
2019-02-20T06:17:35.788Z,98.87
2019-02-20T06:18:34.358Z,98.78
2019-02-20T06:19:32.910Z,98.87
2019-02-20T06:20:31.474Z,98.11
2019-02-20T06:21:30.080Z,98.02
2019-02-20T06:22:28.649Z,97.83
2019-02-20T06:23:27.222Z,98.11
2019-02-20T06:24:25.891Z,97.97
2019-02-20T06:25:24.437Z,98.16
2019-02-20T06:26:23.155Z,97.83
2019-02-20T06:27:21.848Z,98.35
2019-02-20T06:28:20.377Z,98.26
2019-02-20T06:29:18.891Z,97.92
2019-02-20T06:30:17.521Z,97.97
2019-02-20T06:31:16.181Z,97.74
2019-02-20T06:32:14.740Z,98.3
2019-02-20T06:33:13.519Z,98.11
2019-02-20T06:34:12.162Z,98.45
2019-02-20T06:35:10.700Z,98.16
2019-02-20T06:36:09.468Z,97.41
2019-02-20T06:37:08.153Z,96.93
2019-02-20T06:38:06.827Z,96.64
2019-02-20T06:39:05.626Z,96.08
2019-02-20T06:40:04.302Z,96.36
2019-02-20T06:41:02.893Z,96.36
2019-02-20T06:42:01.686Z,96.08
2019-02-20T06:43:00.234Z,95.89
2019-02-20T06:43:58.873Z,95.41
2019-02-20T06:44:57.496Z,95.41
2019-02-20T06:45:56.153Z,94.74
2019-02-20T06:46:54.793Z,95.51
2019-02-20T06:47:53.613Z,96.17
2019-02-20T06:48:52.245Z,95.98
2019-02-20T06:49:50.920Z,96.26
2019-02-20T06:50:49.655Z,97.02
2019-02-20T06:51:48.225Z,96.93
2019-02-20T06:52:46.775Z,96.45
2019-02-20T06:53:45.358Z,95.7
2019-02-20T06:54:53.220Z,95.31
2019-02-20T06:55:42.841Z,95.31
2019-02-20T06:56:41.447Z,95.6
2019-02-20T06:57:40.026Z,95.6
2019-02-20T06:58:38.563Z,96.36
2019-02-20T06:59:37.141Z,96.36
2019-02-20T07:00:35.735Z,96.45
2019-02-20T07:01:34.226Z,95.7
2019-02-20T07:02:55.768Z,96.55
2019-02-20T07:03:54.610Z,95.65
2019-02-20T07:04:53.220Z,96.31
2019-02-20T07:05:51.999Z,95.46
2019-02-20T07:06:50.580Z,95.36
2019-02-20T07:07:49.212Z,95.55
2019-02-20T07:08:48.066Z,94.89
2019-02-20T07:09:46.853Z,94.51
2019-02-20T07:10:45.629Z,94.98
2019-02-20T07:11:44.277Z,94.79
2019-02-20T07:12:42.794Z,95.75
2019-02-20T07:13:41.506Z,95.36
2019-02-20T07:14:40.328Z,95.36
2019-02-20T07:15:39.109Z,95.55
2019-02-20T07:16:37.711Z,95.75
2019-02-20T07:17:36.362Z,94.79
2019-02-20T07:18:34.999Z,94.7
2019-02-20T07:19:33.757Z,94.6
2019-02-20T07:20:33.576Z,94.79
2019-02-20T07:21:31.245Z,94.89
2019-02-20T07:22:30.011Z,94.7
2019-02-20T07:23:28.611Z,94.98
2019-02-20T07:24:27.330Z,94.89
2019-02-20T07:25:26.861Z,94.32
2019-02-20T07:26:25.460Z,94.56
2019-02-20T07:27:24.428Z,94.42
2019-02-20T07:28:22.992Z,94.98
2019-02-20T07:29:21.639Z,95.27
2019-02-20T07:30:20.561Z,95.17
2019-02-20T07:31:19.169Z,95.55
2019-02-20T07:32:17.909Z,96.12
2019-02-20T07:33:16.568Z,95.7
2019-02-20T07:34:15.123Z,95.51
2019-02-20T07:35:13.804Z,95.7
2019-02-20T07:36:12.392Z,96.31
2019-02-20T07:37:10.920Z,96.08
2019-02-20T07:38:09.449Z,96.17
2019-02-20T07:39:08.857Z,95.98
2019-02-20T07:40:07.433Z,95.98
2019-02-20T07:41:06.038Z,95.79
2019-02-20T07:42:04.585Z,95.79
2019-02-20T07:43:03.514Z,95.03
2019-02-20T07:44:02.179Z,95.12
2019-02-20T07:45:00.957Z,95.22
2019-02-20T07:45:59.564Z,94.65
2019-02-20T07:46:58.093Z,94.84
2019-02-20T07:47:56.765Z,94.65
2019-02-20T07:48:55.550Z,95.41
2019-02-20T07:49:54.217Z,95.7
2019-02-20T07:50:52.802Z,95.79
2019-02-20T07:51:51.511Z,95.51
2019-02-20T07:52:50.054Z,95.7
2019-02-20T07:53:48.609Z,95.22
2019-02-20T07:54:47.620Z,95.7
2019-02-20T07:55:46.261Z,95.03
2019-02-20T07:56:45.001Z,94.7
2019-02-20T07:57:43.814Z,94.84
2019-02-20T07:58:42.427Z,95.32
2019-02-20T07:59:40.896Z,95.6
2019-02-20T08:00:39.641Z,95.79
2019-02-20T08:01:38.320Z,95.46
2019-02-20T08:02:36.948Z,94.79
2019-02-20T08:03:35.532Z,94.89
2019-02-20T08:04:34.206Z,94.42
2019-02-20T08:05:32.737Z,94.32
2019-02-20T08:06:31.363Z,94.22
2019-02-20T08:07:30.962Z,93.84
2019-02-20T08:08:29.553Z,93.84
2019-02-20T08:09:28.194Z,93.55
2019-02-20T08:10:26.741Z,93.37
2019-02-20T08:11:25.616Z,93.46
2019-02-20T08:12:24.280Z,93.18
2019-02-20T08:13:22.824Z,92.94
2019-02-20T08:14:21.452Z,92.84
2019-02-20T08:15:20.051Z,93.13
2019-02-20T08:16:18.604Z,92.56
2019-02-20T08:17:17.349Z,92.84
2019-02-20T08:18:16.011Z,92.65
2019-02-20T08:19:14.552Z,91.8
2019-02-20T08:20:13.253Z,91.89
2019-02-20T08:21:11.854Z,91.7
2019-02-20T08:22:10.417Z,91.13
2019-02-20T08:23:09.198Z,90.47
2019-02-20T08:24:07.784Z,91.22
2019-02-20T08:25:06.313Z,91.32
2019-02-20T08:26:04.915Z,91.32
2019-02-20T08:27:03.662Z,91.51
2019-02-20T08:28:02.316Z,91.51
2019-02-20T08:29:00.981Z,91.61
2019-02-20T08:29:59.590Z,91.51
2019-02-20T08:30:58.164Z,91.61
2019-02-20T08:31:56.760Z,91.51
2019-02-20T08:32:55.369Z,91.51
2019-02-20T08:33:53.941Z,91.51
2019-02-20T08:34:52.486Z,92.08
2019-02-20T08:35:51.232Z,92.46
2019-02-20T08:36:50.114Z,92.46
2019-02-20T08:37:48.783Z,92.36
2019-02-20T08:38:48.082Z,92.46
2019-02-20T08:39:46.604Z,92.18
2019-02-20T08:40:45.256Z,92.27
2019-02-20T08:41:43.796Z,92.56
2019-02-20T08:42:42.407Z,92.36
2019-02-20T08:43:40.977Z,92.36
2019-02-20T08:44:39.709Z,92.56
2019-02-20T08:45:38.269Z,92.46
2019-02-20T08:46:36.853Z,92.18
2019-02-20T08:47:35.374Z,92.46
2019-02-20T08:48:34.116Z,93.04
2019-02-20T08:49:32.749Z,92.56
2019-02-20T08:50:31.372Z,92.36
2019-02-20T08:51:30.094Z,92.94
2019-02-20T08:52:28.955Z,93.23
2019-02-20T08:53:27.585Z,92.84
2019-02-20T08:54:26.273Z,93.7
2019-02-20T08:55:31.700Z,93.32
2019-02-20T08:56:25.297Z,92.84
2019-02-20T08:57:23.181Z,92.65
2019-02-20T08:58:21.989Z,92.89
2019-02-20T08:59:20.794Z,92.46
2019-02-20T09:00:20.998Z,93.6
2019-02-20T09:01:17.917Z,93.51
2019-02-20T09:02:16.483Z,93.23
2019-02-20T09:03:15.099Z,93.13
2019-02-20T09:04:13.739Z,93.32
2019-02-20T09:05:12.266Z,93.55
2019-02-20T09:06:11.437Z,93.94
2019-02-20T09:07:10.126Z,94.03
2019-02-20T09:08:08.669Z,93.27
2019-02-20T09:09:07.222Z,93.55
2019-02-20T09:11:58.950Z,93.37
2019-02-20T09:12:57.464Z,93.55
2019-02-20T09:15:20.797Z,93.27
2019-02-20T09:16:19.358Z,93.18
2019-02-20T09:17:18.071Z,92.99
2019-02-20T09:18:16.612Z,92.99
2019-02-20T09:19:15.285Z,92.7
2019-02-20T09:20:14.052Z,92.99
2019-02-20T09:21:12.746Z,92.99
2019-02-20T09:22:11.444Z,93.65
2019-02-20T09:23:09.878Z,93.37
2019-02-20T09:24:08.453Z,93.37
2019-02-20T09:25:07.035Z,93.27
2019-02-20T09:26:05.575Z,93.27
2019-02-20T09:27:04.248Z,93.18
2019-02-20T09:28:02.841Z,92.99
2019-02-20T09:29:01.534Z,93.08
2019-02-20T09:30:00.285Z,93.37
2019-02-20T09:30:58.720Z,93.65
2019-02-20T09:31:57.314Z,93.37
2019-02-20T09:32:56.004Z,93.65
2019-02-20T09:33:56.604Z,93.46
2019-02-20T09:34:53.423Z,93.27
2019-02-20T09:35:52.097Z,93.55
2019-02-20T09:36:50.880Z,93.18
2019-02-20T09:37:49.465Z,93.46
2019-02-20T09:38:48.105Z,93.27
2019-02-20T09:39:46.649Z,93.37
2019-02-20T09:40:45.158Z,93.55
2019-02-20T09:41:43.866Z,93.65
2019-02-20T09:42:42.567Z,93.08
2019-02-20T09:43:41.191Z,92.89
2019-02-20T09:44:40.023Z,92.99
2019-02-20T09:45:41.824Z,92.89
2019-02-20T09:46:37.189Z,92.55
2019-02-20T09:47:35.778Z,92.7
2019-02-20T09:48:34.337Z,93.08
2019-02-20T09:49:32.884Z,93.22
2019-02-20T09:50:31.463Z,92.94
2019-02-20T09:51:30.285Z,93.03
2019-02-20T09:52:28.839Z,93.7
2019-02-20T09:53:27.405Z,93.7
2019-02-20T09:54:26.200Z,93.22
2019-02-20T09:55:24.777Z,93.22
2019-02-20T09:56:23.356Z,93.41
2019-02-20T09:57:21.932Z,93.41
2019-02-20T09:58:20.518Z,93.6
2019-02-20T09:59:19.075Z,93.51
2019-02-20T10:00:17.601Z,93.03
2019-02-20T10:01:16.282Z,92.94
2019-02-20T10:02:14.785Z,92.74
2019-02-20T10:03:13.450Z,92.55
2019-02-20T10:04:12.260Z,92.36
2019-02-20T10:05:10.837Z,92.08
2019-02-20T10:06:09.440Z,92.89
2019-02-20T10:07:08.113Z,92.98
2019-02-20T10:08:06.700Z,92.5
2019-02-20T10:09:05.292Z,92.41
2019-02-20T10:10:04.159Z,92.22
2019-02-20T10:11:02.742Z,92.89
2019-02-20T10:12:01.508Z,92.46
2019-02-20T10:13:00.138Z,92.5
2019-02-20T10:13:58.697Z,92.69
2019-02-20T10:14:57.327Z,92.69
2019-02-20T10:15:55.920Z,93.17
2019-02-20T10:16:54.470Z,93.55
2019-02-20T10:17:54.223Z,93.55
2019-02-20T10:18:52.400Z,93.46
2019-02-20T10:19:51.019Z,93.74
2019-02-20T10:20:49.795Z,94.03
2019-02-20T10:21:48.439Z,94.03
2019-02-20T10:22:47.219Z,94.13
2019-02-20T10:23:45.921Z,93.37
2019-02-20T10:24:44.487Z,93.55
2019-02-20T10:25:43.042Z,93.65
2019-02-20T10:26:42.413Z,92.69
2019-02-20T10:27:40.732Z,93.55
2019-02-20T10:28:39.459Z,93.74
2019-02-20T10:29:38.066Z,93.55
2019-02-20T10:30:36.614Z,93.08
2019-02-20T10:31:35.361Z,93.27
2019-02-20T10:32:34.062Z,92.98
2019-02-20T10:33:32.763Z,92.5
2019-02-20T10:34:31.517Z,92.41
2019-02-20T10:35:30.187Z,92.27
2019-02-20T10:36:28.919Z,92.93
2019-02-20T10:37:27.584Z,92.84
2019-02-20T10:38:26.226Z,92.46
2019-02-20T10:39:24.838Z,93.03
2019-02-20T10:40:23.517Z,93.22
2019-02-20T10:41:22.163Z,93.08
2019-02-20T10:42:20.796Z,92.98
2019-02-20T10:43:19.881Z,92.93
2019-02-20T10:44:18.415Z,93.03
2019-02-20T10:45:16.961Z,93.12
2019-02-20T10:46:15.588Z,92.55
2019-02-20T10:47:14.174Z,92.74
2019-02-20T10:48:12.784Z,92.74
2019-02-20T10:49:11.635Z,92.46
2019-02-20T10:50:10.429Z,92.55
2019-02-20T10:51:09.089Z,92.08
2019-02-20T10:52:07.690Z,91.88
2019-02-20T10:53:06.310Z,91.98
2019-02-20T10:54:05.017Z,91.6
2019-02-20T10:55:03.845Z,91.64
2019-02-20T10:56:09.071Z,91.36
2019-02-20T10:57:01.099Z,91.46
2019-02-20T10:57:59.767Z,91.17
2019-02-20T10:58:58.392Z,90.79
2019-02-20T10:59:56.915Z,90.59
2019-02-20T11:00:55.520Z,90.41
2019-02-20T11:01:54.292Z,90.5
2019-02-20T11:02:52.853Z,90.69
2019-02-20T11:03:51.470Z,90.5
2019-02-20T11:04:50.214Z,90.5
2019-02-20T12:12:16.070Z,87.78
2019-02-20T12:13:14.248Z,87.97
2019-02-20T12:14:12.772Z,87.78
2019-02-20T12:15:11.600Z,87.87
2019-02-20T12:16:10.605Z,87.97
2019-02-20T12:17:09.154Z,87.97
2019-02-20T12:18:07.970Z,88.64
2019-02-20T12:19:06.622Z,88.54
2019-02-20T12:20:05.510Z,88.45
2019-02-20T12:21:04.288Z,88.07
2019-02-20T12:22:02.932Z,87.97
2019-02-20T12:23:01.597Z,88.26
2019-02-20T12:25:41.839Z,87.97
2019-02-20T12:29:20.875Z,87.4
2019-02-20T12:30:19.380Z,87.21
2019-02-20T12:31:18.120Z,86.44
2019-02-20T12:32:16.660Z,86.44
2019-02-20T12:33:15.186Z,87.11
2019-02-20T12:34:13.833Z,87.02
2019-02-20T12:35:12.393Z,87.02
2019-02-20T12:36:10.931Z,86.92
2019-02-20T12:37:09.593Z,85.87
2019-02-20T12:38:08.185Z,85.58
2019-02-20T12:39:06.750Z,85.49
2019-02-20T12:41:30.275Z,85.49
2019-02-20T12:44:09.942Z,85.58
2019-02-20T12:45:09.145Z,85.39
2019-02-20T12:46:07.492Z,84.53
2019-02-20T12:57:18.881Z,82.67
2019-02-20T12:58:17.550Z,82.43
2019-02-20T12:59:16.190Z,82.29
2019-02-20T13:00:14.803Z,82
2019-02-20T13:01:13.388Z,81.43
2019-02-20T13:03:10.907Z,81.71
2019-02-20T13:04:09.493Z,81.43
2019-02-20T13:05:08.239Z,81.52
2019-02-20T13:06:06.710Z,81.71
2019-02-20T13:07:05.342Z,81.04
2019-02-20T13:08:04.049Z,80.76
2019-02-20T13:10:04.690Z,80.95
2019-02-20T13:12:01.785Z,80.76
2019-02-20T13:13:00.396Z,80.76
2019-02-20T13:13:58.905Z,80.66
2019-02-20T13:14:57.433Z,80.57
2019-02-20T13:15:56.056Z,80.85
2019-02-20T13:16:54.765Z,80.38
2019-02-20T13:17:53.262Z,79.99
2019-02-20T13:18:51.855Z,80.38
2019-02-20T13:19:50.401Z,80.85
2019-02-20T13:20:48.949Z,80.76
2019-02-20T13:21:47.543Z,80.28
2019-02-20T13:22:46.474Z,80.28
2019-02-20T13:23:45.512Z,80.47
2019-02-20T13:24:44.012Z,80.38
2019-02-20T13:25:42.247Z,80.47
2019-02-20T13:26:41.175Z,80.76
2019-02-20T13:27:40.298Z,80.57
2019-02-20T13:28:38.301Z,79.71
2019-02-20T13:29:36.954Z,80.47
2019-02-20T13:30:35.563Z,80.28
2019-02-20T13:31:34.267Z,80.85
2019-02-20T13:32:32.774Z,80.85
2019-02-20T13:33:31.344Z,81.52
2019-02-20T13:34:29.986Z,80.85
2019-02-20T13:35:28.555Z,80.95
2019-02-20T13:36:27.146Z,80.76
2019-02-20T13:37:25.697Z,80.76
2019-02-20T13:38:24.257Z,81.04
2019-02-20T13:39:22.843Z,81.24
2019-02-20T13:40:21.671Z,81.04
2019-02-20T13:41:20.326Z,80.95
2019-02-20T13:42:18.945Z,81.33
2019-02-20T13:43:17.524Z,81.62
2019-02-20T13:44:16.205Z,81.43
2019-02-20T13:45:14.900Z,81.33
2019-02-20T13:46:13.661Z,81.24
2019-02-20T13:47:12.682Z,81.33
2019-02-20T13:48:11.369Z,81.71
2019-02-20T13:49:09.994Z,80.47
2019-02-20T13:50:08.528Z,81.33
2019-02-20T13:51:07.209Z,80.66
2019-02-20T13:52:05.897Z,80.66
2019-02-20T13:53:04.449Z,80.76
2019-02-20T13:54:02.992Z,81.47
2019-02-20T13:55:01.526Z,80.99
2019-02-20T13:56:00.175Z,80.22
2019-02-20T13:57:01.751Z,80.61
2019-02-20T13:57:57.412Z,80.8
2019-02-20T13:58:56.011Z,80.32
2019-02-20T13:59:54.469Z,80.32
2019-02-20T14:02:17.459Z,80.61
2019-02-20T14:03:16.172Z,79.75
2019-02-20T14:04:14.766Z,80.22
2019-02-20T14:05:13.365Z,79.94
2019-02-20T14:06:11.864Z,79.75
2019-02-20T14:07:10.474Z,79.75
2019-02-20T14:08:09.105Z,79.94
2019-02-20T14:09:07.554Z,79.94
2019-02-20T14:10:06.069Z,79.94
2019-02-20T14:11:04.587Z,79.75
2019-02-20T14:12:03.169Z,79.75
2019-02-20T14:13:01.732Z,79.85
2019-02-20T14:14:00.511Z,79.65
2019-02-20T14:16:40.641Z,79.75
2019-02-20T14:17:39.322Z,80.04
2019-02-20T14:18:37.858Z,80.13
2019-02-20T14:19:36.466Z,79.36
2019-02-20T14:20:35.198Z,79.56
2019-02-20T14:21:34.050Z,79.17
2019-02-20T14:22:32.611Z,79.56
2019-02-20T14:23:31.247Z,80.04
2019-02-20T14:24:30.007Z,79.56
2019-02-20T14:25:28.573Z,80.13
2019-02-20T14:28:26.674Z,79.85
2019-02-20T14:29:25.317Z,79.85
2019-02-20T14:30:24.010Z,80.13
2019-02-20T14:31:22.981Z,79.65
2019-02-20T14:32:21.489Z,79.94
2019-02-20T14:33:20.121Z,79.56
2019-02-20T14:34:18.773Z,79.56
2019-02-20T14:35:17.347Z,79.56
2019-02-20T14:36:16.093Z,79.75
2019-02-20T14:37:14.652Z,80.13
2019-02-20T14:38:13.196Z,79.94
2019-02-20T14:39:11.799Z,79.85
2019-02-20T14:41:34.571Z,79.65
2019-02-20T14:42:33.223Z,79.75
2019-02-20T14:43:32.036Z,79.56
2019-02-20T14:44:30.732Z,79.85
2019-02-20T14:45:29.403Z,79.75
2019-02-20T14:46:28.005Z,79.75
2019-02-20T14:47:26.518Z,80.13